sensor_id;sensor_type;location;lat;lon;timestamp;P1;durP1;ratioP1;P2;durP2;ratioP2
20181;SDS011;10250;50.756;6.172;2022-09-20T00:00:13;3.90;;;1.20;;
20181;SDS011;10250;50.756;6.172;2022-09-20T00:02:14;2.97;;;0.90;;
20181;SDS011;10250;50.756;6.172;2022-09-20T00:04:15;3.47;;;1.03;;
20181;SDS011;10250;50.756;6.172;2022-09-20T00:06:17;5.43;;;1.50;;
20181;SDS011;10250;50.756;6.172;2022-09-20T00:08:22;6.80;;;1.63;;
20181;SDS011;10250;50.756;6.172;2022-09-20T00:10:23;4.77;;;1.30;;
20181;SDS011;10250;50.756;6.172;2022-09-20T00:12:23;6.13;;;1.30;;
20181;SDS011;10250;50.756;6.172;2022-09-20T00:14:25;4.93;;;1.60;;
20181;SDS011;10250;50.756;6.172;2022-09-20T00:16:27;9.07;;;1.83;;
20181;SDS011;10250;50.756;6.172;2022-09-20T00:18:30;7.17;;;1.80;;
20181;SDS011;10250;50.756;6.172;2022-09-20T00:20:30;8.63;;;2.00;;
20181;SDS011;10250;50.756;6.172;2022-09-20T00:22:31;6.73;;;1.97;;
20181;SDS011;10250;50.756;6.172;2022-09-20T00:24:31;6.63;;;1.67;;
20181;SDS011;10250;50.756;6.172;2022-09-20T00:26:35;6.33;;;1.60;;
20181;SDS011;10250;50.756;6.172;2022-09-20T00:28:36;5.10;;;1.50;;
20181;SDS011;10250;50.756;6.172;2022-09-20T00:30:36;4.30;;;1.23;;
20181;SDS011;10250;50.756;6.172;2022-09-20T00:32:38;5.43;;;1.63;;
20181;SDS011;10250;50.756;6.172;2022-09-20T00:34:39;6.63;;;1.60;;
20181;SDS011;10250;50.756;6.172;2022-09-20T00:36:58;5.60;;;1.53;;
20181;SDS011;10250;50.756;6.172;2022-09-20T00:38:59;5.80;;;1.90;;
20181;SDS011;10250;50.756;6.172;2022-09-20T00:41:01;6.03;;;1.53;;
20181;SDS011;10250;50.756;6.172;2022-09-20T00:43:02;5.37;;;1.60;;
20181;SDS011;10250;50.756;6.172;2022-09-20T00:45:04;6.23;;;1.43;;
20181;SDS011;10250;50.756;6.172;2022-09-20T00:47:06;4.70;;;1.47;;
20181;SDS011;10250;50.756;6.172;2022-09-20T00:49:23;5.30;;;1.37;;
20181;SDS011;10250;50.756;6.172;2022-09-20T00:51:31;8.13;;;1.93;;
20181;SDS011;10250;50.756;6.172;2022-09-20T00:53:38;9.27;;;1.90;;
20181;SDS011;10250;50.756;6.172;2022-09-20T00:55:45;7.07;;;1.73;;
20181;SDS011;10250;50.756;6.172;2022-09-20T00:57:49;5.33;;;1.30;;
20181;SDS011;10250;50.756;6.172;2022-09-20T00:59:50;6.43;;;2.20;;
20181;SDS011;10250;50.756;6.172;2022-09-20T01:01:52;6.93;;;1.63;;
20181;SDS011;10250;50.756;6.172;2022-09-20T01:03:58;4.63;;;1.33;;
20181;SDS011;10250;50.756;6.172;2022-09-20T01:06:03;4.87;;;1.57;;
20181;SDS011;10250;50.756;6.172;2022-09-20T01:08:07;4.27;;;1.20;;
20181;SDS011;10250;50.756;6.172;2022-09-20T01:10:09;2.20;;;0.77;;
20181;SDS011;10250;50.756;6.172;2022-09-20T01:12:12;5.47;;;1.57;;
20181;SDS011;10250;50.756;6.172;2022-09-20T01:14:15;6.23;;;1.40;;
20181;SDS011;10250;50.756;6.172;2022-09-20T01:16:21;4.90;;;1.33;;
20181;SDS011;10250;50.756;6.172;2022-09-20T01:18:23;7.33;;;1.63;;
20181;SDS011;10250;50.756;6.172;2022-09-20T01:20:35;7.60;;;1.60;;
20181;SDS011;10250;50.756;6.172;2022-09-20T01:27:09;7.83;;;1.70;;
20181;SDS011;10250;50.756;6.172;2022-09-20T01:29:36;7.47;;;1.70;;
20181;SDS011;10250;50.756;6.172;2022-09-20T01:31:51;4.47;;;1.40;;
20181;SDS011;10250;50.756;6.172;2022-09-20T01:34:01;5.63;;;1.03;;
20181;SDS011;10250;50.756;6.172;2022-09-20T01:36:07;3.93;;;1.20;;
20181;SDS011;10250;50.756;6.172;2022-09-20T01:38:16;4.23;;;1.23;;
20181;SDS011;10250;50.756;6.172;2022-09-20T01:40:31;4.03;;;1.30;;
20181;SDS011;10250;50.756;6.172;2022-09-20T01:42:45;4.90;;;1.40;;
20181;SDS011;10250;50.756;6.172;2022-09-20T01:51:51;3.27;;;1.00;;
20181;SDS011;10250;50.756;6.172;2022-09-20T02:05:56;1.63;;;0.93;;
20181;SDS011;10250;50.756;6.172;2022-09-20T02:13:31;4.10;;;1.00;;
20181;SDS011;10250;50.756;6.172;2022-09-20T02:18:17;5.10;;;1.27;;
20181;SDS011;10250;50.756;6.172;2022-09-20T02:20:41;4.33;;;1.27;;
20181;SDS011;10250;50.756;6.172;2022-09-20T02:25:35;2.57;;;0.90;;
20181;SDS011;10250;50.756;6.172;2022-09-20T02:30:40;4.53;;;1.37;;
20181;SDS011;10250;50.756;6.172;2022-09-20T02:51:40;6.97;;;1.87;;
20181;SDS011;10250;50.756;6.172;2022-09-20T02:54:03;5.53;;;1.60;;
20181;SDS011;10250;50.756;6.172;2022-09-20T02:56:18;6.43;;;1.60;;
20181;SDS011;10250;50.756;6.172;2022-09-20T03:02:45;7.70;;;1.90;;
20181;SDS011;10250;50.756;6.172;2022-09-20T03:04:52;8.73;;;2.00;;
20181;SDS011;10250;50.756;6.172;2022-09-20T03:18:26;9.63;;;2.10;;
20181;SDS011;10250;50.756;6.172;2022-09-20T03:38:10;9.63;;;2.50;;
20181;SDS011;10250;50.756;6.172;2022-09-20T03:42:30;9.07;;;2.57;;
20181;SDS011;10250;50.756;6.172;2022-09-20T03:46:44;12.03;;;3.13;;
20181;SDS011;10250;50.756;6.172;2022-09-20T03:49:04;11.13;;;3.57;;
20181;SDS011;10250;50.756;6.172;2022-09-20T04:04:24;12.30;;;3.73;;
20181;SDS011;10250;50.756;6.172;2022-09-20T04:06:44;12.47;;;3.77;;
20181;SDS011;10250;50.756;6.172;2022-09-20T04:11:30;12.27;;;3.67;;
20181;SDS011;10250;50.756;6.172;2022-09-20T04:13:55;12.17;;;3.40;;
20181;SDS011;10250;50.756;6.172;2022-09-20T04:16:37;12.17;;;3.73;;
20181;SDS011;10250;50.756;6.172;2022-09-20T04:21:18;14.90;;;4.27;;
20181;SDS011;10250;50.756;6.172;2022-09-20T04:23:37;14.83;;;3.90;;
20181;SDS011;10250;50.756;6.172;2022-09-20T04:25:46;15.63;;;4.03;;
20181;SDS011;10250;50.756;6.172;2022-09-20T04:27:50;13.23;;;3.87;;
20181;SDS011;10250;50.756;6.172;2022-09-20T04:30:18;15.37;;;4.27;;
20181;SDS011;10250;50.756;6.172;2022-09-20T04:32:23;14.47;;;4.20;;
20181;SDS011;10250;50.756;6.172;2022-09-20T04:34:34;15.00;;;4.33;;
20181;SDS011;10250;50.756;6.172;2022-09-20T04:36:58;15.37;;;4.30;;
20181;SDS011;10250;50.756;6.172;2022-09-20T04:39:22;13.17;;;4.37;;
20181;SDS011;10250;50.756;6.172;2022-09-20T04:44:11;16.93;;;4.57;;
20181;SDS011;10250;50.756;6.172;2022-09-20T05:03:25;14.90;;;4.13;;
20181;SDS011;10250;50.756;6.172;2022-09-20T05:13:04;14.37;;;3.83;;
20181;SDS011;10250;50.756;6.172;2022-09-20T05:15:09;13.97;;;4.30;;
20181;SDS011;10250;50.756;6.172;2022-09-20T05:17:35;15.13;;;3.80;;
20181;SDS011;10250;50.756;6.172;2022-09-20T05:35:30;15.40;;;4.57;;
20181;SDS011;10250;50.756;6.172;2022-09-20T05:40:30;14.10;;;4.23;;
20181;SDS011;10250;50.756;6.172;2022-09-20T05:45:22;11.73;;;3.27;;
20181;SDS011;10250;50.756;6.172;2022-09-20T06:00:23;11.90;;;3.17;;
20181;SDS011;10250;50.756;6.172;2022-09-20T06:02:39;12.00;;;2.73;;
20181;SDS011;10250;50.756;6.172;2022-09-20T06:07:12;14.60;;;2.80;;
20181;SDS011;10250;50.756;6.172;2022-09-20T06:21:50;13.60;;;2.77;;
20181;SDS011;10250;50.756;6.172;2022-09-20T06:23:48;9.73;;;2.40;;
20181;SDS011;10250;50.756;6.172;2022-09-20T06:25:54;11.47;;;2.43;;
20181;SDS011;10250;50.756;6.172;2022-09-20T06:30:04;10.70;;;2.63;;
20181;SDS011;10250;50.756;6.172;2022-09-20T06:32:14;8.53;;;2.40;;
20181;SDS011;10250;50.756;6.172;2022-09-20T06:34:16;12.63;;;2.90;;
20181;SDS011;10250;50.756;6.172;2022-09-20T06:36:27;9.33;;;2.33;;
20181;SDS011;10250;50.756;6.172;2022-09-20T06:41:30;10.93;;;2.50;;
20181;SDS011;10250;50.756;6.172;2022-09-20T06:43:36;9.67;;;2.40;;
20181;SDS011;10250;50.756;6.172;2022-09-20T06:45:39;8.83;;;2.37;;
20181;SDS011;10250;50.756;6.172;2022-09-20T06:47:41;6.57;;;1.97;;
20181;SDS011;10250;50.756;6.172;2022-09-20T06:49:42;7.80;;;2.13;;
20181;SDS011;10250;50.756;6.172;2022-09-20T06:51:43;7.80;;;2.20;;
20181;SDS011;10250;50.756;6.172;2022-09-20T06:53:44;9.00;;;1.70;;
20181;SDS011;10250;50.756;6.172;2022-09-20T06:55:44;6.30;;;1.77;;
20181;SDS011;10250;50.756;6.172;2022-09-20T06:57:46;9.07;;;2.03;;
20181;SDS011;10250;50.756;6.172;2022-09-20T06:59:46;9.00;;;2.10;;
20181;SDS011;10250;50.756;6.172;2022-09-20T07:01:47;6.73;;;1.93;;
20181;SDS011;10250;50.756;6.172;2022-09-20T07:03:48;13.27;;;3.30;;
20181;SDS011;10250;50.756;6.172;2022-09-20T07:05:48;10.17;;;2.57;;
20181;SDS011;10250;50.756;6.172;2022-09-20T07:07:49;10.70;;;3.10;;
20181;SDS011;10250;50.756;6.172;2022-09-20T07:09:55;11.00;;;2.90;;
20181;SDS011;10250;50.756;6.172;2022-09-20T07:11:55;11.20;;;2.93;;
20181;SDS011;10250;50.756;6.172;2022-09-20T07:13:58;10.30;;;2.97;;
20181;SDS011;10250;50.756;6.172;2022-09-20T07:16:09;11.87;;;3.37;;
20181;SDS011;10250;50.756;6.172;2022-09-20T07:18:12;12.20;;;3.30;;
20181;SDS011;10250;50.756;6.172;2022-09-20T07:20:13;11.80;;;2.97;;
20181;SDS011;10250;50.756;6.172;2022-09-20T07:22:13;11.60;;;2.60;;
20181;SDS011;10250;50.756;6.172;2022-09-20T07:24:14;9.93;;;2.70;;
20181;SDS011;10250;50.756;6.172;2022-09-20T07:26:19;9.73;;;2.83;;
20181;SDS011;10250;50.756;6.172;2022-09-20T07:28:22;12.43;;;3.50;;
20181;SDS011;10250;50.756;6.172;2022-09-20T07:30:25;11.83;;;3.10;;
20181;SDS011;10250;50.756;6.172;2022-09-20T07:32:26;10.30;;;3.37;;
20181;SDS011;10250;50.756;6.172;2022-09-20T07:34:27;12.43;;;3.43;;
20181;SDS011;10250;50.756;6.172;2022-09-20T07:36:28;16.87;;;4.00;;
20181;SDS011;10250;50.756;6.172;2022-09-20T07:38:31;12.40;;;3.13;;
20181;SDS011;10250;50.756;6.172;2022-09-20T07:40:35;13.20;;;3.63;;
20181;SDS011;10250;50.756;6.172;2022-09-20T07:42:36;11.23;;;3.40;;
20181;SDS011;10250;50.756;6.172;2022-09-20T07:44:36;13.60;;;3.60;;
20181;SDS011;10250;50.756;6.172;2022-09-20T07:46:40;12.17;;;3.03;;
20181;SDS011;10250;50.756;6.172;2022-09-20T07:48:42;11.60;;;3.30;;
20181;SDS011;10250;50.756;6.172;2022-09-20T07:50:49;13.70;;;3.87;;
20181;SDS011;10250;50.756;6.172;2022-09-20T07:52:50;11.90;;;3.30;;
20181;SDS011;10250;50.756;6.172;2022-09-20T07:54:54;11.70;;;2.73;;
20181;SDS011;10250;50.756;6.172;2022-09-20T07:56:55;10.67;;;2.53;;
20181;SDS011;10250;50.756;6.172;2022-09-20T07:58:55;11.60;;;2.97;;
20181;SDS011;10250;50.756;6.172;2022-09-20T08:00:57;12.27;;;3.27;;
20181;SDS011;10250;50.756;6.172;2022-09-20T08:02:59;10.40;;;3.13;;
20181;SDS011;10250;50.756;6.172;2022-09-20T08:05:00;14.47;;;3.13;;
20181;SDS011;10250;50.756;6.172;2022-09-20T08:07:00;10.30;;;2.70;;
20181;SDS011;10250;50.756;6.172;2022-09-20T08:09:01;12.43;;;3.37;;
20181;SDS011;10250;50.756;6.172;2022-09-20T08:11:06;14.33;;;3.73;;
20181;SDS011;10250;50.756;6.172;2022-09-20T08:13:08;11.23;;;3.03;;
20181;SDS011;10250;50.756;6.172;2022-09-20T08:15:10;11.57;;;2.93;;
20181;SDS011;10250;50.756;6.172;2022-09-20T08:17:11;10.07;;;3.00;;
20181;SDS011;10250;50.756;6.172;2022-09-20T08:19:15;10.57;;;2.83;;
20181;SDS011;10250;50.756;6.172;2022-09-20T08:21:20;10.27;;;2.77;;
20181;SDS011;10250;50.756;6.172;2022-09-20T08:23:21;12.43;;;3.17;;
20181;SDS011;10250;50.756;6.172;2022-09-20T08:25:21;10.33;;;3.10;;
20181;SDS011;10250;50.756;6.172;2022-09-20T08:27:22;12.63;;;3.10;;
20181;SDS011;10250;50.756;6.172;2022-09-20T08:29:22;10.13;;;2.87;;
20181;SDS011;10250;50.756;6.172;2022-09-20T08:31:25;9.93;;;3.07;;
20181;SDS011;10250;50.756;6.172;2022-09-20T08:33:30;11.43;;;2.90;;
20181;SDS011;10250;50.756;6.172;2022-09-20T08:35:34;11.57;;;2.90;;
20181;SDS011;10250;50.756;6.172;2022-09-20T08:37:35;11.67;;;3.13;;
20181;SDS011;10250;50.756;6.172;2022-09-20T08:39:35;9.00;;;2.37;;
20181;SDS011;10250;50.756;6.172;2022-09-20T08:41:46;10.37;;;2.70;;
20181;SDS011;10250;50.756;6.172;2022-09-20T08:43:55;11.23;;;3.10;;
20181;SDS011;10250;50.756;6.172;2022-09-20T08:46:01;10.90;;;2.90;;
20181;SDS011;10250;50.756;6.172;2022-09-20T08:48:05;9.43;;;2.53;;
20181;SDS011;10250;50.756;6.172;2022-09-20T08:50:11;12.10;;;2.57;;
20181;SDS011;10250;50.756;6.172;2022-09-20T08:52:17;17.40;;;2.60;;
20181;SDS011;10250;50.756;6.172;2022-09-20T08:54:21;9.97;;;2.60;;
20181;SDS011;10250;50.756;6.172;2022-09-20T08:56:25;9.37;;;2.40;;
20181;SDS011;10250;50.756;6.172;2022-09-20T08:58:29;9.93;;;2.60;;
20181;SDS011;10250;50.756;6.172;2022-09-20T09:00:30;7.70;;;2.10;;
20181;SDS011;10250;50.756;6.172;2022-09-20T09:02:32;7.93;;;2.03;;
20181;SDS011;10250;50.756;6.172;2022-09-20T09:04:34;8.33;;;1.97;;
20181;SDS011;10250;50.756;6.172;2022-09-20T09:06:35;6.90;;;2.10;;
20181;SDS011;10250;50.756;6.172;2022-09-20T09:08:36;7.53;;;2.03;;
20181;SDS011;10250;50.756;6.172;2022-09-20T09:10:38;9.73;;;2.43;;
20181;SDS011;10250;50.756;6.172;2022-09-20T09:12:40;9.13;;;2.20;;
20181;SDS011;10250;50.756;6.172;2022-09-20T09:14:45;8.07;;;2.10;;
20181;SDS011;10250;50.756;6.172;2022-09-20T09:16:51;11.43;;;2.40;;
20181;SDS011;10250;50.756;6.172;2022-09-20T09:18:52;7.93;;;1.73;;
20181;SDS011;10250;50.756;6.172;2022-09-20T09:20:54;7.53;;;2.03;;
20181;SDS011;10250;50.756;6.172;2022-09-20T09:22:58;9.37;;;2.23;;
20181;SDS011;10250;50.756;6.172;2022-09-20T09:27:17;6.33;;;1.67;;
20181;SDS011;10250;50.756;6.172;2022-09-20T09:29:19;6.87;;;1.83;;
20181;SDS011;10250;50.756;6.172;2022-09-20T09:31:23;5.43;;;1.50;;
20181;SDS011;10250;50.756;6.172;2022-09-20T09:33:29;6.23;;;1.70;;
20181;SDS011;10250;50.756;6.172;2022-09-20T09:35:30;3.67;;;1.40;;
20181;SDS011;10250;50.756;6.172;2022-09-20T09:37:34;6.77;;;1.80;;
20181;SDS011;10250;50.756;6.172;2022-09-20T09:39:35;5.57;;;1.67;;
20181;SDS011;10250;50.756;6.172;2022-09-20T09:41:37;3.20;;;1.40;;
20181;SDS011;10250;50.756;6.172;2022-09-20T09:43:37;7.60;;;2.00;;
20181;SDS011;10250;50.756;6.172;2022-09-20T09:45:39;7.07;;;1.70;;
20181;SDS011;10250;50.756;6.172;2022-09-20T09:47:40;7.37;;;1.57;;
20181;SDS011;10250;50.756;6.172;2022-09-20T09:49:54;7.70;;;2.30;;
20181;SDS011;10250;50.756;6.172;2022-09-20T09:54:15;4.47;;;1.37;;
20181;SDS011;10250;50.756;6.172;2022-09-20T10:00:53;6.03;;;1.70;;
20181;SDS011;10250;50.756;6.172;2022-09-20T10:05:31;6.80;;;1.77;;
20181;SDS011;10250;50.756;6.172;2022-09-20T10:12:20;4.70;;;1.57;;
20181;SDS011;10250;50.756;6.172;2022-09-20T10:25:52;3.53;;;1.30;;
20181;SDS011;10250;50.756;6.172;2022-09-20T10:30:24;7.87;;;1.60;;
20181;SDS011;10250;50.756;6.172;2022-09-20T10:32:38;4.90;;;1.37;;
20181;SDS011;10250;50.756;6.172;2022-09-20T10:36:53;4.17;;;1.40;;
20181;SDS011;10250;50.756;6.172;2022-09-20T10:53:11;3.57;;;1.13;;
20181;SDS011;10250;50.756;6.172;2022-09-20T11:00:24;2.10;;;0.97;;
20181;SDS011;10250;50.756;6.172;2022-09-20T11:02:59;6.20;;;1.37;;
20181;SDS011;10250;50.756;6.172;2022-09-20T11:05:16;2.53;;;0.90;;
20181;SDS011;10250;50.756;6.172;2022-09-20T11:10:54;4.77;;;0.80;;
20181;SDS011;10250;50.756;6.172;2022-09-20T11:12:42;4.00;;;0.77;;
20181;SDS011;10250;50.756;6.172;2022-09-20T11:14:52;1.83;;;0.70;;
20181;SDS011;10250;50.756;6.172;2022-09-20T11:17:17;3.10;;;0.87;;
20181;SDS011;10250;50.756;6.172;2022-09-20T11:21:57;2.13;;;0.90;;
20181;SDS011;10250;50.756;6.172;2022-09-20T11:26:39;4.97;;;1.30;;
20181;SDS011;10250;50.756;6.172;2022-09-20T11:28:50;8.27;;;1.00;;
20181;SDS011;10250;50.756;6.172;2022-09-20T11:31:01;3.80;;;1.00;;
20181;SDS011;10250;50.756;6.172;2022-09-20T11:33:16;2.10;;;0.87;;
20181;SDS011;10250;50.756;6.172;2022-09-20T11:35:28;3.50;;;1.03;;
20181;SDS011;10250;50.756;6.172;2022-09-20T11:37:37;3.50;;;1.03;;
20181;SDS011;10250;50.756;6.172;2022-09-20T11:39:42;0.90;;;0.60;;
20181;SDS011;10250;50.756;6.172;2022-09-20T11:41:50;0.93;;;0.67;;
20181;SDS011;10250;50.756;6.172;2022-09-20T11:43:54;3.60;;;0.80;;
20181;SDS011;10250;50.756;6.172;2022-09-20T11:46:03;2.33;;;0.87;;
20181;SDS011;10250;50.756;6.172;2022-09-20T11:48:13;2.53;;;0.77;;
20181;SDS011;10250;50.756;6.172;2022-09-20T11:50:39;1.43;;;0.50;;
20181;SDS011;10250;50.756;6.172;2022-09-20T11:57:41;3.03;;;0.63;;
20181;SDS011;10250;50.756;6.172;2022-09-20T11:59:47;3.03;;;0.90;;
20181;SDS011;10250;50.756;6.172;2022-09-20T12:01:53;2.43;;;0.70;;
20181;SDS011;10250;50.756;6.172;2022-09-20T12:03:59;2.40;;;0.70;;
20181;SDS011;10250;50.756;6.172;2022-09-20T12:06:04;5.13;;;1.10;;
20181;SDS011;10250;50.756;6.172;2022-09-20T12:08:24;2.07;;;0.53;;
20181;SDS011;10250;50.756;6.172;2022-09-20T12:10:33;2.30;;;0.70;;
20181;SDS011;10250;50.756;6.172;2022-09-20T12:12:42;2.97;;;0.80;;
20181;SDS011;10250;50.756;6.172;2022-09-20T12:14:52;2.20;;;0.63;;
20181;SDS011;10250;50.756;6.172;2022-09-20T12:16:55;3.30;;;0.80;;
20181;SDS011;10250;50.756;6.172;2022-09-20T12:21:05;2.70;;;0.90;;
20181;SDS011;10250;50.756;6.172;2022-09-20T12:25:58;4.13;;;0.90;;
20181;SDS011;10250;50.756;6.172;2022-09-20T12:28:00;3.70;;;0.87;;
20181;SDS011;10250;50.756;6.172;2022-09-20T12:32:31;3.30;;;0.80;;
20181;SDS011;10250;50.756;6.172;2022-09-20T12:34:38;1.00;;;0.30;;
20181;SDS011;10250;50.756;6.172;2022-09-20T12:36:42;2.33;;;0.63;;
20181;SDS011;10250;50.756;6.172;2022-09-20T12:38:56;1.33;;;0.40;;
20181;SDS011;10250;50.756;6.172;2022-09-20T12:43:14;4.97;;;1.40;;
20181;SDS011;10250;50.756;6.172;2022-09-20T12:45:19;2.00;;;0.70;;
20181;SDS011;10250;50.756;6.172;2022-09-20T12:47:29;6.20;;;0.90;;
20181;SDS011;10250;50.756;6.172;2022-09-20T12:49:33;1.77;;;0.80;;
20181;SDS011;10250;50.756;6.172;2022-09-20T12:52:25;3.40;;;0.83;;
20181;SDS011;10250;50.756;6.172;2022-09-20T12:54:50;4.27;;;0.90;;
20181;SDS011;10250;50.756;6.172;2022-09-20T12:56:53;4.57;;;1.10;;
20181;SDS011;10250;50.756;6.172;2022-09-20T12:58:54;3.33;;;0.77;;
20181;SDS011;10250;50.756;6.172;2022-09-20T13:02:58;4.13;;;0.93;;
20181;SDS011;10250;50.756;6.172;2022-09-20T13:04:59;3.50;;;1.03;;
20181;SDS011;10250;50.756;6.172;2022-09-20T13:09:32;3.37;;;0.73;;
20181;SDS011;10250;50.756;6.172;2022-09-20T13:15:50;4.53;;;0.90;;
20181;SDS011;10250;50.756;6.172;2022-09-20T13:17:53;5.30;;;0.80;;
20181;SDS011;10250;50.756;6.172;2022-09-20T13:19:58;0.97;;;0.70;;
20181;SDS011;10250;50.756;6.172;2022-09-20T13:23:59;2.10;;;0.93;;
20181;SDS011;10250;50.756;6.172;2022-09-20T13:26:01;5.97;;;1.17;;
20181;SDS011;10250;50.756;6.172;2022-09-20T13:28:13;4.80;;;0.77;;
20181;SDS011;10250;50.756;6.172;2022-09-20T13:30:23;7.33;;;1.00;;
20181;SDS011;10250;50.756;6.172;2022-09-20T13:32:34;0.97;;;0.60;;
20181;SDS011;10250;50.756;6.172;2022-09-20T13:34:34;0.67;;;0.50;;
20181;SDS011;10250;50.756;6.172;2022-09-20T13:36:35;3.03;;;0.80;;
20181;SDS011;10250;50.756;6.172;2022-09-20T13:38:37;5.43;;;1.10;;
20181;SDS011;10250;50.756;6.172;2022-09-20T13:42:49;2.00;;;0.70;;
20181;SDS011;10250;50.756;6.172;2022-09-20T13:44:51;3.80;;;1.03;;
20181;SDS011;10250;50.756;6.172;2022-09-20T13:46:52;4.07;;;1.03;;
20181;SDS011;10250;50.756;6.172;2022-09-20T13:51:18;5.20;;;1.17;;
20181;SDS011;10250;50.756;6.172;2022-09-20T13:53:20;3.47;;;1.07;;
20181;SDS011;10250;50.756;6.172;2022-09-20T13:57:33;4.10;;;0.93;;
20181;SDS011;10250;50.756;6.172;2022-09-20T13:59:35;2.80;;;1.07;;
20181;SDS011;10250;50.756;6.172;2022-09-20T14:01:41;3.00;;;1.00;;
20181;SDS011;10250;50.756;6.172;2022-09-20T14:03:51;3.23;;;1.00;;
20181;SDS011;10250;50.756;6.172;2022-09-20T14:05:54;2.10;;;0.80;;
20181;SDS011;10250;50.756;6.172;2022-09-20T14:07:58;3.30;;;1.20;;
20181;SDS011;10250;50.756;6.172;2022-09-20T14:10:00;1.90;;;0.80;;
20181;SDS011;10250;50.756;6.172;2022-09-20T14:12:01;3.10;;;1.10;;
20181;SDS011;10250;50.756;6.172;2022-09-20T14:14:03;2.57;;;0.93;;
20181;SDS011;10250;50.756;6.172;2022-09-20T14:16:06;3.07;;;0.90;;
20181;SDS011;10250;50.756;6.172;2022-09-20T14:18:13;2.83;;;0.93;;
20181;SDS011;10250;50.756;6.172;2022-09-20T14:20:20;4.73;;;1.00;;
20181;SDS011;10250;50.756;6.172;2022-09-20T14:22:25;3.83;;;1.10;;
20181;SDS011;10250;50.756;6.172;2022-09-20T14:24:28;5.63;;;1.20;;
20181;SDS011;10250;50.756;6.172;2022-09-20T14:26:39;6.57;;;1.17;;
20181;SDS011;10250;50.756;6.172;2022-09-20T14:28:44;4.33;;;1.10;;
20181;SDS011;10250;50.756;6.172;2022-09-20T14:30:47;6.70;;;1.20;;
20181;SDS011;10250;50.756;6.172;2022-09-20T14:32:51;8.47;;;2.00;;
20181;SDS011;10250;50.756;6.172;2022-09-20T14:37:01;9.90;;;2.23;;
20181;SDS011;10250;50.756;6.172;2022-09-20T14:39:12;8.10;;;1.70;;
20181;SDS011;10250;50.756;6.172;2022-09-20T14:41:23;4.70;;;1.30;;
20181;SDS011;10250;50.756;6.172;2022-09-20T14:43:28;3.73;;;1.17;;
20181;SDS011;10250;50.756;6.172;2022-09-20T14:45:37;3.93;;;1.10;;
20181;SDS011;10250;50.756;6.172;2022-09-20T14:47:51;2.53;;;0.73;;
20181;SDS011;10250;50.756;6.172;2022-09-20T14:49:54;3.53;;;0.77;;
20181;SDS011;10250;50.756;6.172;2022-09-20T14:56:46;3.13;;;0.87;;
20181;SDS011;10250;50.756;6.172;2022-09-20T15:01:21;4.73;;;0.93;;
20181;SDS011;10250;50.756;6.172;2022-09-20T15:03:30;1.37;;;0.63;;
20181;SDS011;10250;50.756;6.172;2022-09-20T15:05:33;7.90;;;1.27;;
20181;SDS011;10250;50.756;6.172;2022-09-20T15:07:35;1.87;;;0.70;;
20181;SDS011;10250;50.756;6.172;2022-09-20T15:09:36;3.23;;;1.07;;
20181;SDS011;10250;50.756;6.172;2022-09-20T15:11:36;2.93;;;0.90;;
20181;SDS011;10250;50.756;6.172;2022-09-20T15:13:38;2.10;;;0.90;;
20181;SDS011;10250;50.756;6.172;2022-09-20T15:15:39;5.03;;;1.07;;
20181;SDS011;10250;50.756;6.172;2022-09-20T15:17:41;3.60;;;0.83;;
20181;SDS011;10250;50.756;6.172;2022-09-20T15:19:42;1.70;;;0.70;;
20181;SDS011;10250;50.756;6.172;2022-09-20T15:21:44;3.87;;;1.00;;
20181;SDS011;10250;50.756;6.172;2022-09-20T15:23:44;4.47;;;0.90;;
20181;SDS011;10250;50.756;6.172;2022-09-20T15:25:45;1.70;;;0.80;;
20181;SDS011;10250;50.756;6.172;2022-09-20T15:27:49;3.20;;;0.97;;
20181;SDS011;10250;50.756;6.172;2022-09-20T15:29:50;3.17;;;0.73;;
20181;SDS011;10250;50.756;6.172;2022-09-20T15:31:51;5.90;;;0.97;;
20181;SDS011;10250;50.756;6.172;2022-09-20T15:33:52;2.40;;;0.90;;
20181;SDS011;10250;50.756;6.172;2022-09-20T15:35:52;2.47;;;0.90;;
20181;SDS011;10250;50.756;6.172;2022-09-20T15:37:53;1.67;;;0.70;;
20181;SDS011;10250;50.756;6.172;2022-09-20T15:39:53;3.00;;;0.80;;
20181;SDS011;10250;50.756;6.172;2022-09-20T15:41:54;2.80;;;0.80;;
20181;SDS011;10250;50.756;6.172;2022-09-20T15:43:55;2.10;;;0.77;;
20181;SDS011;10250;50.756;6.172;2022-09-20T15:45:56;4.03;;;1.00;;
20181;SDS011;10250;50.756;6.172;2022-09-20T15:48:01;3.60;;;0.90;;
20181;SDS011;10250;50.756;6.172;2022-09-20T15:50:05;6.17;;;1.00;;
20181;SDS011;10250;50.756;6.172;2022-09-20T15:52:07;4.30;;;0.87;;
20181;SDS011;10250;50.756;6.172;2022-09-20T15:54:08;0.97;;;0.60;;
20181;SDS011;10250;50.756;6.172;2022-09-20T15:56:13;2.73;;;0.73;;
20181;SDS011;10250;50.756;6.172;2022-09-20T15:58:15;2.43;;;0.80;;
20181;SDS011;10250;50.756;6.172;2022-09-20T16:00:16;1.43;;;0.63;;
20181;SDS011;10250;50.756;6.172;2022-09-20T16:02:17;3.00;;;1.00;;
20181;SDS011;10250;50.756;6.172;2022-09-20T16:04:20;2.17;;;0.77;;
20181;SDS011;10250;50.756;6.172;2022-09-20T16:06:23;4.17;;;0.80;;
20181;SDS011;10250;50.756;6.172;2022-09-20T16:08:24;2.83;;;0.80;;
20181;SDS011;10250;50.756;6.172;2022-09-20T16:10:24;6.80;;;1.23;;
20181;SDS011;10250;50.756;6.172;2022-09-20T16:12:25;4.13;;;0.83;;
20181;SDS011;10250;50.756;6.172;2022-09-20T16:14:26;1.63;;;0.80;;
20181;SDS011;10250;50.756;6.172;2022-09-20T16:16:27;2.03;;;0.80;;
20181;SDS011;10250;50.756;6.172;2022-09-20T16:18:29;1.63;;;0.80;;
20181;SDS011;10250;50.756;6.172;2022-09-20T16:20:48;4.10;;;0.90;;
20181;SDS011;10250;50.756;6.172;2022-09-20T16:22:49;4.73;;;1.00;;
20181;SDS011;10250;50.756;6.172;2022-09-20T16:24:49;5.40;;;1.10;;
20181;SDS011;10250;50.756;6.172;2022-09-20T16:26:50;5.13;;;0.97;;
20181;SDS011;10250;50.756;6.172;2022-09-20T16:28:51;5.00;;;1.00;;
20181;SDS011;10250;50.756;6.172;2022-09-20T16:30:55;6.13;;;1.20;;
20181;SDS011;10250;50.756;6.172;2022-09-20T16:32:56;4.27;;;0.90;;
20181;SDS011;10250;50.756;6.172;2022-09-20T16:35:00;7.23;;;1.30;;
20181;SDS011;10250;50.756;6.172;2022-09-20T16:37:09;3.83;;;1.10;;
20181;SDS011;10250;50.756;6.172;2022-09-20T16:39:14;3.30;;;1.00;;
20181;SDS011;10250;50.756;6.172;2022-09-20T16:41:15;4.00;;;1.10;;
20181;SDS011;10250;50.756;6.172;2022-09-20T16:43:16;3.37;;;1.00;;
20181;SDS011;10250;50.756;6.172;2022-09-20T16:45:22;2.80;;;0.70;;
20181;SDS011;10250;50.756;6.172;2022-09-20T16:47:23;3.40;;;0.90;;
20181;SDS011;10250;50.756;6.172;2022-09-20T16:49:25;3.10;;;1.00;;
20181;SDS011;10250;50.756;6.172;2022-09-20T16:51:29;3.97;;;1.07;;
20181;SDS011;10250;50.756;6.172;2022-09-20T16:53:32;4.67;;;0.90;;
20181;SDS011;10250;50.756;6.172;2022-09-20T16:55:33;4.23;;;1.20;;
20181;SDS011;10250;50.756;6.172;2022-09-20T16:57:33;6.97;;;1.03;;
20181;SDS011;10250;50.756;6.172;2022-09-20T16:59:35;7.37;;;1.10;;
20181;SDS011;10250;50.756;6.172;2022-09-20T17:01:37;3.63;;;1.03;;
20181;SDS011;10250;50.756;6.172;2022-09-20T17:03:39;3.30;;;1.00;;
20181;SDS011;10250;50.756;6.172;2022-09-20T17:05:40;6.63;;;1.00;;
20181;SDS011;10250;50.756;6.172;2022-09-20T17:07:41;2.63;;;0.83;;
20181;SDS011;10250;50.756;6.172;2022-09-20T17:09:42;3.30;;;0.90;;
20181;SDS011;10250;50.756;6.172;2022-09-20T17:11:43;2.33;;;0.90;;
20181;SDS011;10250;50.756;6.172;2022-09-20T17:13:46;4.30;;;0.90;;
20181;SDS011;10250;50.756;6.172;2022-09-20T17:15:58;4.43;;;1.00;;
20181;SDS011;10250;50.756;6.172;2022-09-20T17:18:05;2.60;;;0.90;;
20181;SDS011;10250;50.756;6.172;2022-09-20T17:20:08;5.80;;;1.53;;
20181;SDS011;10250;50.756;6.172;2022-09-20T17:22:08;5.67;;;0.97;;
20181;SDS011;10250;50.756;6.172;2022-09-20T17:24:10;4.90;;;1.20;;
20181;SDS011;10250;50.756;6.172;2022-09-20T17:26:16;2.60;;;0.80;;
20181;SDS011;10250;50.756;6.172;2022-09-20T17:28:18;1.90;;;0.83;;